sensor_id;sensor_type;location;lat;lon;timestamp;P1;durP1;ratioP1;P2;durP2;ratioP2
68690;SDS011;55675;49.588;8.640;2022-08-20T04:55:51;4.40;;;4.00;;
68690;SDS011;55675;49.588;8.640;2022-08-20T04:58:37;5.03;;;3.77;;
68690;SDS011;55675;49.588;8.640;2022-08-20T05:01:05;3.80;;;3.50;;
68690;SDS011;55675;49.588;8.640;2022-08-20T05:03:33;3.90;;;3.60;;
68690;SDS011;55675;49.588;8.640;2022-08-20T05:06:02;3.77;;;3.43;;
68690;SDS011;55675;49.588;8.640;2022-08-20T05:08:30;4.03;;;3.30;;
68690;SDS011;55675;49.588;8.640;2022-08-20T05:10:56;4.23;;;3.50;;
68690;SDS011;55675;49.588;8.640;2022-08-20T05:13:22;4.77;;;3.57;;
68690;SDS011;55675;49.588;8.640;2022-08-20T05:15:48;4.07;;;3.43;;
68690;SDS011;55675;49.588;8.640;2022-08-20T05:18:15;3.83;;;3.50;;
68690;SDS011;55675;49.588;8.640;2022-08-20T05:20:43;4.30;;;3.90;;
68690;SDS011;55675;49.588;8.640;2022-08-20T05:23:10;3.90;;;3.50;;
68690;SDS011;55675;49.588;8.640;2022-08-20T05:25:36;3.27;;;2.97;;
68690;SDS011;55675;49.588;8.640;2022-08-20T05:28:04;5.83;;;3.73;;
68690;SDS011;55675;49.588;8.640;2022-08-20T05:30:33;3.93;;;3.63;;
68690;SDS011;55675;49.588;8.640;2022-08-20T05:33:04;4.50;;;4.10;;
68690;SDS011;55675;49.588;8.640;2022-08-20T05:35:32;4.47;;;2.97;;
68690;SDS011;55675;49.588;8.640;2022-08-20T05:37:59;3.40;;;3.03;;
68690;SDS011;55675;49.588;8.640;2022-08-20T05:40:25;5.07;;;2.80;;
68690;SDS011;55675;49.588;8.640;2022-08-20T05:42:51;3.70;;;2.93;;
68690;SDS011;55675;49.588;8.640;2022-08-20T05:45:17;3.33;;;2.93;;
68690;SDS011;55675;49.588;8.640;2022-08-20T05:47:43;4.97;;;3.20;;
68690;SDS011;55675;49.588;8.640;2022-08-20T05:50:10;4.33;;;3.73;;
68690;SDS011;55675;49.588;8.640;2022-08-20T05:52:37;4.77;;;3.47;;
68690;SDS011;55675;49.588;8.640;2022-08-20T05:55:04;3.67;;;2.93;;
68690;SDS011;55675;49.588;8.640;2022-08-20T05:57:31;3.10;;;2.80;;
68690;SDS011;55675;49.588;8.640;2022-08-20T05:59:58;6.67;;;3.20;;
68690;SDS011;55675;49.588;8.640;2022-08-20T06:02:26;3.73;;;3.03;;
68690;SDS011;55675;49.588;8.640;2022-08-20T06:05:10;3.77;;;2.60;;
68690;SDS011;55675;49.588;8.640;2022-08-20T06:07:36;3.20;;;2.60;;
68690;SDS011;55675;49.588;8.640;2022-08-20T06:10:02;3.97;;;2.90;;
68690;SDS011;55675;49.588;8.640;2022-08-20T06:12:29;3.23;;;2.93;;
68690;SDS011;55675;49.588;8.640;2022-08-20T06:14:54;3.40;;;2.90;;
68690;SDS011;55675;49.588;8.640;2022-08-20T06:17:20;2.87;;;2.67;;
68690;SDS011;55675;49.588;8.640;2022-08-20T06:19:46;3.03;;;2.43;;
68690;SDS011;55675;49.588;8.640;2022-08-20T06:22:13;2.40;;;2.20;;
68690;SDS011;55675;49.588;8.640;2022-08-20T06:24:39;2.70;;;2.50;;
68690;SDS011;55675;49.588;8.640;2022-08-20T06:27:04;2.90;;;2.70;;
68690;SDS011;55675;49.588;8.640;2022-08-20T06:29:31;3.23;;;2.33;;
68690;SDS011;55675;49.588;8.640;2022-08-20T06:31:57;3.03;;;2.77;;
68690;SDS011;55675;49.588;8.640;2022-08-20T06:34:23;3.70;;;3.30;;
68690;SDS011;55675;49.588;8.640;2022-08-20T06:36:52;3.27;;;2.97;;
68690;SDS011;55675;49.588;8.640;2022-08-20T06:39:21;2.97;;;2.77;;
68690;SDS011;55675;49.588;8.640;2022-08-20T06:41:47;2.50;;;2.30;;
68690;SDS011;55675;49.588;8.640;2022-08-20T06:44:13;2.80;;;2.60;;
68690;SDS011;55675;49.588;8.640;2022-08-20T06:46:39;2.93;;;2.73;;
68690;SDS011;55675;49.588;8.640;2022-08-20T06:49:06;3.53;;;2.90;;
68690;SDS011;55675;49.588;8.640;2022-08-20T06:51:32;4.57;;;3.10;;
68690;SDS011;55675;49.588;8.640;2022-08-20T06:53:58;2.90;;;2.70;;
68690;SDS011;55675;49.588;8.640;2022-08-20T06:56:24;3.00;;;2.80;;
68690;SDS011;55675;49.588;8.640;2022-08-20T06:58:50;3.30;;;3.00;;
68690;SDS011;55675;49.588;8.640;2022-08-20T07:01:15;3.60;;;2.90;;
68690;SDS011;55675;49.588;8.640;2022-08-20T07:03:45;2.80;;;2.60;;
68690;SDS011;55675;49.588;8.640;2022-08-20T07:06:12;3.80;;;3.10;;
68690;SDS011;55675;49.588;8.640;2022-08-20T07:08:40;3.40;;;3.10;;
68690;SDS011;55675;49.588;8.640;2022-08-20T07:11:06;3.10;;;2.80;;
68690;SDS011;55675;49.588;8.640;2022-08-20T07:13:31;3.50;;;3.20;;
68690;SDS011;55675;49.588;8.640;2022-08-20T07:15:57;5.00;;;2.80;;
68690;SDS011;55675;49.588;8.640;2022-08-20T07:18:23;3.10;;;2.80;;
68690;SDS011;55675;49.588;8.640;2022-08-20T07:20:48;3.37;;;3.07;;
68690;SDS011;55675;49.588;8.640;2022-08-20T07:23:14;2.80;;;2.60;;
68690;SDS011;55675;49.588;8.640;2022-08-20T07:25:41;2.93;;;2.73;;
68690;SDS011;55675;49.588;8.640;2022-08-20T07:28:11;3.03;;;2.83;;
68690;SDS011;55675;49.588;8.640;2022-08-20T07:30:39;2.50;;;2.30;;
68690;SDS011;55675;49.588;8.640;2022-08-20T07:33:25;2.60;;;2.40;;
68690;SDS011;55675;49.588;8.640;2022-08-20T07:35:52;2.67;;;2.30;;
68690;SDS011;55675;49.588;8.640;2022-08-20T07:38:19;3.10;;;2.20;;
68690;SDS011;55675;49.588;8.640;2022-08-20T07:40:49;2.17;;;2.07;;
68690;SDS011;55675;49.588;8.640;2022-08-20T07:43:25;2.20;;;1.80;;
68690;SDS011;55675;49.588;8.640;2022-08-20T07:45:52;2.27;;;1.63;;
68690;SDS011;55675;49.588;8.640;2022-08-20T07:48:24;1.73;;;1.63;;
68690;SDS011;55675;49.588;8.640;2022-08-20T07:50:50;1.73;;;1.63;;
68690;SDS011;55675;49.588;8.640;2022-08-20T07:53:16;2.13;;;1.90;;
68690;SDS011;55675;49.588;8.640;2022-08-20T07:55:42;1.70;;;1.60;;
68690;SDS011;55675;49.588;8.640;2022-08-20T07:58:09;1.70;;;1.60;;
68690;SDS011;55675;49.588;8.640;2022-08-20T08:00:37;2.47;;;1.77;;
68690;SDS011;55675;49.588;8.640;2022-08-20T08:03:04;1.83;;;1.73;;
68690;SDS011;55675;49.588;8.640;2022-08-20T08:05:31;2.10;;;2.00;;
68690;SDS011;55675;49.588;8.640;2022-08-20T08:07:58;2.23;;;2.13;;
68690;SDS011;55675;49.588;8.640;2022-08-20T08:10:25;2.80;;;2.17;;
68690;SDS011;55675;49.588;8.640;2022-08-20T08:12:53;2.80;;;2.20;;
68690;SDS011;55675;49.588;8.640;2022-08-20T08:15:23;2.77;;;2.43;;
68690;SDS011;55675;49.588;8.640;2022-08-20T08:17:52;2.50;;;2.20;;
68690;SDS011;55675;49.588;8.640;2022-08-20T08:20:22;3.10;;;2.70;;
68690;SDS011;55675;49.588;8.640;2022-08-20T08:22:49;2.23;;;2.10;;
68690;SDS011;55675;49.588;8.640;2022-08-20T08:25:15;2.40;;;2.20;;
68690;SDS011;55675;49.588;8.640;2022-08-20T08:27:41;2.17;;;2.07;;
68690;SDS011;55675;49.588;8.640;2022-08-20T08:30:08;2.63;;;2.43;;
68690;SDS011;55675;49.588;8.640;2022-08-20T08:32:35;2.77;;;2.57;;
68690;SDS011;55675;49.588;8.640;2022-08-20T08:35:04;2.83;;;2.57;;
68690;SDS011;55675;49.588;8.640;2022-08-20T08:37:32;2.60;;;2.40;;
68690;SDS011;55675;49.588;8.640;2022-08-20T08:39:57;3.50;;;2.70;;
68690;SDS011;55675;49.588;8.640;2022-08-20T08:42:25;2.77;;;2.57;;
68690;SDS011;55675;49.588;8.640;2022-08-20T08:44:58;2.60;;;2.40;;
68690;SDS011;55675;49.588;8.640;2022-08-20T08:47:26;3.77;;;2.50;;
68690;SDS011;55675;49.588;8.640;2022-08-20T08:49:54;2.53;;;2.33;;
68690;SDS011;55675;49.588;8.640;2022-08-20T08:52:22;3.03;;;2.73;;
68690;SDS011;55675;49.588;8.640;2022-08-20T08:54:54;2.60;;;2.40;;
68690;SDS011;55675;49.588;8.640;2022-08-20T08:57:22;2.33;;;2.23;;
68690;SDS011;55675;49.588;8.640;2022-08-20T08:59:57;2.53;;;2.30;;
68690;SDS011;55675;49.588;8.640;2022-08-20T09:02:33;2.40;;;2.27;;
68690;SDS011;55675;49.588;8.640;2022-08-20T09:05:00;2.80;;;2.60;;
68690;SDS011;55675;49.588;8.640;2022-08-20T09:07:35;2.97;;;2.73;;
68690;SDS011;55675;49.588;8.640;2022-08-20T09:10:02;3.23;;;2.60;;
68690;SDS011;55675;49.588;8.640;2022-08-20T09:12:28;2.60;;;2.40;;
68690;SDS011;55675;49.588;8.640;2022-08-20T09:14:53;5.07;;;2.90;;
68690;SDS011;55675;49.588;8.640;2022-08-20T09:17:19;2.77;;;2.57;;
68690;SDS011;55675;49.588;8.640;2022-08-20T09:19:46;2.47;;;2.27;;
68690;SDS011;55675;49.588;8.640;2022-08-20T09:22:14;2.43;;;2.17;;
68690;SDS011;55675;49.588;8.640;2022-08-20T09:24:43;2.70;;;2.50;;
68690;SDS011;55675;49.588;8.640;2022-08-20T09:27:08;2.80;;;2.60;;
68690;SDS011;55675;49.588;8.640;2022-08-20T09:29:35;2.40;;;2.20;;
68690;SDS011;55675;49.588;8.640;2022-08-20T09:32:11;2.53;;;2.40;;
68690;SDS011;55675;49.588;8.640;2022-08-20T09:34:41;2.70;;;2.50;;
68690;SDS011;55675;49.588;8.640;2022-08-20T09:37:08;2.50;;;2.30;;
68690;SDS011;55675;49.588;8.640;2022-08-20T09:39:34;2.90;;;2.63;;
68690;SDS011;55675;49.588;8.640;2022-08-20T09:42:17;2.87;;;2.57;;
68690;SDS011;55675;49.588;8.640;2022-08-20T09:44:45;3.13;;;2.93;;
68690;SDS011;55675;49.588;8.640;2022-08-20T09:47:11;3.50;;;3.30;;
68690;SDS011;55675;49.588;8.640;2022-08-20T09:49:36;2.53;;;2.40;;
68690;SDS011;55675;49.588;8.640;2022-08-20T09:52:03;3.37;;;3.10;;
68690;SDS011;55675;49.588;8.640;2022-08-20T09:54:31;4.23;;;3.33;;
68690;SDS011;55675;49.588;8.640;2022-08-20T09:56:58;3.07;;;2.87;;
68690;SDS011;55675;49.588;8.640;2022-08-20T09:59:27;3.10;;;2.90;;
68690;SDS011;55675;49.588;8.640;2022-08-20T10:01:53;3.63;;;3.33;;
68690;SDS011;55675;49.588;8.640;2022-08-20T10:04:19;3.33;;;3.03;;
68690;SDS011;55675;49.588;8.640;2022-08-20T10:06:44;4.30;;;3.00;;
68690;SDS011;55675;49.588;8.640;2022-08-20T10:09:10;3.23;;;2.90;;
68690;SDS011;55675;49.588;8.640;2022-08-20T10:11:35;3.27;;;3.03;;
68690;SDS011;55675;49.588;8.640;2022-08-20T10:14:01;3.07;;;2.80;;
68690;SDS011;55675;49.588;8.640;2022-08-20T10:16:26;3.30;;;3.00;;
68690;SDS011;55675;49.588;8.640;2022-08-20T10:18:52;3.30;;;3.00;;
68690;SDS011;55675;49.588;8.640;2022-08-20T10:21:17;3.70;;;3.40;;
68690;SDS011;55675;49.588;8.640;2022-08-20T10:23:43;4.10;;;3.50;;
68690;SDS011;55675;49.588;8.640;2022-08-20T10:26:10;4.00;;;3.20;;
68690;SDS011;55675;49.588;8.640;2022-08-20T10:28:36;5.40;;;4.03;;
68690;SDS011;55675;49.588;8.640;2022-08-20T10:31:06;3.77;;;3.47;;
68690;SDS011;55675;49.588;8.640;2022-08-20T10:33:32;4.20;;;3.87;;
68690;SDS011;55675;49.588;8.640;2022-08-20T10:36:04;3.80;;;3.50;;
68690;SDS011;55675;49.588;8.640;2022-08-20T10:38:31;3.70;;;3.40;;
68690;SDS011;55675;49.588;8.640;2022-08-20T10:40:56;3.83;;;3.53;;
68690;SDS011;55675;49.588;8.640;2022-08-20T10:43:22;3.50;;;3.30;;
68690;SDS011;55675;49.588;8.640;2022-08-20T10:45:47;3.17;;;2.90;;
68690;SDS011;55675;49.588;8.640;2022-08-20T10:48:15;2.77;;;2.57;;
68690;SDS011;55675;49.588;8.640;2022-08-20T10:50:40;2.33;;;2.13;;
68690;SDS011;55675;49.588;8.640;2022-08-20T10:53:06;2.70;;;2.50;;
68690;SDS011;55675;49.588;8.640;2022-08-20T10:55:31;2.10;;;2.00;;
68690;SDS011;55675;49.588;8.640;2022-08-20T10:57:57;2.57;;;2.37;;
68690;SDS011;55675;49.588;8.640;2022-08-20T11:00:22;2.73;;;2.53;;
68690;SDS011;55675;49.588;8.640;2022-08-20T11:02:48;2.23;;;2.13;;
68690;SDS011;55675;49.588;8.640;2022-08-20T11:05:14;2.20;;;2.00;;
68690;SDS011;55675;49.588;8.640;2022-08-20T11:07:40;2.10;;;2.00;;
68690;SDS011;55675;49.588;8.640;2022-08-20T11:10:07;2.20;;;2.10;;
68690;SDS011;55675;49.588;8.640;2022-08-20T11:12:34;1.93;;;1.83;;
68690;SDS011;55675;49.588;8.640;2022-08-20T11:15:00;2.20;;;1.90;;
68690;SDS011;55675;49.588;8.640;2022-08-20T11:17:27;1.80;;;1.70;;
68690;SDS011;55675;49.588;8.640;2022-08-20T11:19:54;2.30;;;1.83;;
68690;SDS011;55675;49.588;8.640;2022-08-20T11:22:22;1.80;;;1.70;;
68690;SDS011;55675;49.588;8.640;2022-08-20T11:24:48;2.10;;;1.90;;
68690;SDS011;55675;49.588;8.640;2022-08-20T11:27:21;2.10;;;1.67;;
68690;SDS011;55675;49.588;8.640;2022-08-20T11:29:53;1.60;;;1.50;;
68690;SDS011;55675;49.588;8.640;2022-08-20T11:32:19;1.50;;;1.40;;
68690;SDS011;55675;49.588;8.640;2022-08-20T11:34:45;1.70;;;1.50;;
68690;SDS011;55675;49.588;8.640;2022-08-20T11:37:11;1.50;;;1.40;;
68690;SDS011;55675;49.588;8.640;2022-08-20T11:39:38;1.97;;;1.63;;
68690;SDS011;55675;49.588;8.640;2022-08-20T11:42:04;1.90;;;1.20;;
68690;SDS011;55675;49.588;8.640;2022-08-20T11:44:30;1.47;;;1.37;;
68690;SDS011;55675;49.588;8.640;2022-08-20T11:46:58;1.30;;;1.20;;
68690;SDS011;55675;49.588;8.640;2022-08-20T11:49:27;1.17;;;1.10;;
68690;SDS011;55675;49.588;8.640;2022-08-20T11:51:53;1.50;;;1.20;;
68690;SDS011;55675;49.588;8.640;2022-08-20T11:54:19;1.00;;;1.00;;
68690;SDS011;55675;49.588;8.640;2022-08-20T11:56:44;1.50;;;1.30;;
68690;SDS011;55675;49.588;8.640;2022-08-20T11:59:10;1.00;;;1.00;;
68690;SDS011;55675;49.588;8.640;2022-08-20T12:01:36;1.00;;;1.00;;
68690;SDS011;55675;49.588;8.640;2022-08-20T12:04:01;1.10;;;1.03;;
68690;SDS011;55675;49.588;8.640;2022-08-20T12:06:27;2.40;;;1.30;;
68690;SDS011;55675;49.588;8.640;2022-08-20T12:08:53;1.10;;;1.00;;
68690;SDS011;55675;49.588;8.640;2022-08-20T12:11:18;0.90;;;0.90;;
68690;SDS011;55675;49.588;8.640;2022-08-20T12:13:44;1.00;;;1.00;;
68690;SDS011;55675;49.588;8.640;2022-08-20T12:16:10;0.90;;;0.90;;
68690;SDS011;55675;49.588;8.640;2022-08-20T12:18:35;0.90;;;0.90;;
68690;SDS011;55675;49.588;8.640;2022-08-20T12:21:01;1.27;;;1.10;;
68690;SDS011;55675;49.588;8.640;2022-08-20T12:23:26;0.90;;;0.90;;
68690;SDS011;55675;49.588;8.640;2022-08-20T12:25:52;2.60;;;1.37;;
68690;SDS011;55675;49.588;8.640;2022-08-20T12:28:18;1.60;;;1.00;;
68690;SDS011;55675;49.588;8.640;2022-08-20T12:30:43;1.10;;;1.00;;
68690;SDS011;55675;49.588;8.640;2022-08-20T12:33:09;0.80;;;0.80;;
68690;SDS011;55675;49.588;8.640;2022-08-20T12:35:34;0.73;;;0.73;;
68690;SDS011;55675;49.588;8.640;2022-08-20T12:38:04;1.27;;;0.80;;
68690;SDS011;55675;49.588;8.640;2022-08-20T12:40:31;0.80;;;0.80;;
68690;SDS011;55675;49.588;8.640;2022-08-20T12:42:57;0.70;;;0.70;;
68690;SDS011;55675;49.588;8.640;2022-08-20T12:45:22;0.83;;;0.83;;
68690;SDS011;55675;49.588;8.640;2022-08-20T12:47:48;0.60;;;0.60;;
68690;SDS011;55675;49.588;8.640;2022-08-20T12:50:15;0.60;;;0.60;;
68690;SDS011;55675;49.588;8.640;2022-08-20T12:52:43;0.70;;;0.70;;
68690;SDS011;55675;49.588;8.640;2022-08-20T12:55:10;1.13;;;0.73;;
68690;SDS011;55675;49.588;8.640;2022-08-20T12:57:39;0.70;;;0.70;;
68690;SDS011;55675;49.588;8.640;2022-08-20T13:00:20;0.60;;;0.60;;
68690;SDS011;55675;49.588;8.640;2022-08-20T13:02:50;0.60;;;0.60;;
68690;SDS011;55675;49.588;8.640;2022-08-20T13:05:17;0.97;;;0.40;;
68690;SDS011;55675;49.588;8.640;2022-08-20T13:07:43;0.30;;;0.30;;
68690;SDS011;55675;49.588;8.640;2022-08-20T13:10:10;0.30;;;0.30;;
68690;SDS011;55675;49.588;8.640;2022-08-20T13:12:38;0.30;;;0.30;;
68690;SDS011;55675;49.588;8.640;2022-08-20T13:15:04;0.40;;;0.40;;
68690;SDS011;55675;49.588;8.640;2022-08-20T13:17:30;0.30;;;0.30;;
68690;SDS011;55675;49.588;8.640;2022-08-20T13:19:55;0.50;;;0.50;;
68690;SDS011;55675;49.588;8.640;2022-08-20T13:22:21;0.77;;;0.60;;
68690;SDS011;55675;49.588;8.640;2022-08-20T13:24:46;1.37;;;0.80;;
68690;SDS011;55675;49.588;8.640;2022-08-20T13:27:13;0.60;;;0.60;;
68690;SDS011;55675;49.588;8.640;2022-08-20T13:29:44;0.50;;;0.50;;
68690;SDS011;55675;49.588;8.640;2022-08-20T13:32:11;0.70;;;0.70;;
68690;SDS011;55675;49.588;8.640;2022-08-20T13:34:36;0.70;;;0.70;;
68690;SDS011;55675;49.588;8.640;2022-08-20T13:37:09;0.93;;;0.90;;
68690;SDS011;55675;49.588;8.640;2022-08-20T13:39:43;0.80;;;0.80;;
68690;SDS011;55675;49.588;8.640;2022-08-20T13:42:09;0.87;;;0.87;;
68690;SDS011;55675;49.588;8.640;2022-08-20T13:44:36;1.73;;;1.00;;
68690;SDS011;55675;49.588;8.640;2022-08-20T13:52:35;0.90;;;0.90;;
68690;SDS011;55675;49.588;8.640;2022-08-20T13:55:02;2.40;;;1.15;;
68690;SDS011;55675;49.588;8.640;2022-08-20T13:59:54;1.00;;;1.00;;
68690;SDS011;55675;49.588;8.640;2022-08-20T14:02:21;0.90;;;0.90;;
68690;SDS011;55675;49.588;8.640;2022-08-20T14:04:46;2.95;;;1.30;;
68690;SDS011;55675;49.588;8.640;2022-08-20T14:07:23;1.38;;;1.00;;
68690;SDS011;55675;49.588;8.640;2022-08-20T14:09:55;4.63;;;1.38;;
68690;SDS011;55675;49.588;8.640;2022-08-20T14:12:26;1.67;;;1.33;;
68690;SDS011;55675;49.588;8.640;2022-08-20T14:14:52;1.63;;;1.52;;
68690;SDS011;55675;49.588;8.640;2022-08-20T14:17:19;1.90;;;1.80;;
68690;SDS011;55675;49.588;8.640;2022-08-20T14:19:51;1.27;;;1.23;;
68690;SDS011;55675;49.588;8.640;2022-08-20T14:22:25;2.65;;;1.58;;
68690;SDS011;55675;49.588;8.640;2022-08-20T14:24:51;1.55;;;1.45;;
68690;SDS011;55675;49.588;8.640;2022-08-20T14:27:18;4.18;;;1.60;;
68690;SDS011;55675;49.588;8.640;2022-08-20T14:29:45;2.10;;;1.38;;
68690;SDS011;55675;49.588;8.640;2022-08-20T14:32:11;3.13;;;1.60;;
68690;SDS011;55675;49.588;8.640;2022-08-20T14:34:38;1.60;;;1.30;;
68690;SDS011;55675;49.588;8.640;2022-08-20T14:37:14;1.50;;;1.38;;
68690;SDS011;55675;49.588;8.640;2022-08-20T14:39:50;2.80;;;1.30;;
68690;SDS011;55675;49.588;8.640;2022-08-20T14:42:18;1.73;;;1.30;;
68690;SDS011;55675;49.588;8.640;2022-08-20T14:44:46;1.45;;;1.35;;
68690;SDS011;55675;49.588;8.640;2022-08-20T14:47:13;1.33;;;1.23;;
68690;SDS011;55675;49.588;8.640;2022-08-20T14:49:51;1.75;;;1.35;;
68690;SDS011;55675;49.588;8.640;2022-08-20T14:52:19;1.50;;;1.40;;
68690;SDS011;55675;49.588;8.640;2022-08-20T14:54:47;1.90;;;1.15;;
68690;SDS011;55675;49.588;8.640;2022-08-20T14:57:14;1.73;;;1.30;;
68690;SDS011;55675;49.588;8.640;2022-08-20T14:59:40;2.58;;;1.23;;
68690;SDS011;55675;49.588;8.640;2022-08-20T15:02:07;2.42;;;1.30;;
68690;SDS011;55675;49.588;8.640;2022-08-20T15:04:34;2.17;;;1.30;;
68690;SDS011;55675;49.588;8.640;2022-08-20T15:07:01;1.70;;;1.17;;
68690;SDS011;55675;49.588;8.640;2022-08-20T15:09:29;2.58;;;1.13;;
68690;SDS011;55675;49.588;8.640;2022-08-20T15:11:55;2.58;;;1.23;;
68690;SDS011;55675;49.588;8.640;2022-08-20T15:14:22;1.00;;;1.00;;
68690;SDS011;55675;49.588;8.640;2022-08-20T15:16:47;2.25;;;1.30;;
68690;SDS011;55675;49.588;8.640;2022-08-20T15:19:13;1.67;;;1.10;;
68690;SDS011;55675;49.588;8.640;2022-08-20T15:21:39;4.20;;;1.48;;
68690;SDS011;55675;49.588;8.640;2022-08-20T15:24:04;1.27;;;1.17;;
68690;SDS011;55675;49.588;8.640;2022-08-20T15:26:30;0.95;;;0.80;;
68690;SDS011;55675;49.588;8.640;2022-08-20T15:28:56;0.80;;;0.80;;
68690;SDS011;55675;49.588;8.640;2022-08-20T15:31:21;2.38;;;0.98;;
68690;SDS011;55675;49.588;8.640;2022-08-20T15:33:47;0.98;;;0.93;;
68690;SDS011;55675;49.588;8.640;2022-08-20T15:36:12;1.08;;;0.80;;
68690;SDS011;55675;49.588;8.640;2022-08-20T15:38:38;0.70;;;0.70;;
68690;SDS011;55675;49.588;8.640;2022-08-20T15:41:03;0.77;;;0.77;;
68690;SDS011;55675;49.588;8.640;2022-08-20T15:43:29;1.23;;;0.90;;
68690;SDS011;55675;49.588;8.640;2022-08-20T15:45:56;1.00;;;1.00;;
68690;SDS011;55675;49.588;8.640;2022-08-20T15:48:29;1.13;;;1.00;;
68690;SDS011;55675;49.588;8.640;2022-08-20T15:56:46;2.53;;;0.93;;
68690;SDS011;55675;49.588;8.640;2022-08-20T16:04:43;2.50;;;1.13;;
68690;SDS011;55675;49.588;8.640;2022-08-20T16:07:17;1.45;;;1.00;;
68690;SDS011;55675;49.588;8.640;2022-08-20T16:12:33;1.38;;;1.00;;
68690;SDS011;55675;49.588;8.640;2022-08-20T16:15:04;2.13;;;1.23;;
68690;SDS011;55675;49.588;8.640;2022-08-20T16:20:34;3.00;;;1.35;;
68690;SDS011;55675;49.588;8.640;2022-08-20T16:23:04;1.27;;;1.17;;
68690;SDS011;55675;49.588;8.640;2022-08-20T16:25:33;1.50;;;1.38;;
68690;SDS011;55675;49.588;8.640;2022-08-20T16:28:27;1.60;;;1.20;;
68690;SDS011;55675;49.588;8.640;2022-08-20T16:31:09;1.73;;;1.15;;
68690;SDS011;55675;49.588;8.640;2022-08-20T16:33:43;2.03;;;1.10;;
68690;SDS011;55675;49.588;8.640;2022-08-20T16:36:23;1.25;;;1.20;;
68690;SDS011;55675;49.588;8.640;2022-08-20T16:38:59;2.67;;;1.30;;
68690;SDS011;55675;49.588;8.640;2022-08-20T16:41:31;1.45;;;1.35;;
68690;SDS011;55675;49.588;8.640;2022-08-20T16:44:23;1.75;;;1.30;;
68690;SDS011;55675;49.588;8.640;2022-08-20T16:49:47;1.40;;;1.30;;
68690;SDS011;55675;49.588;8.640;2022-08-20T16:52:16;1.23;;;1.13;;
68690;SDS011;55675;49.588;8.640;2022-08-20T16:54:42;1.55;;;1.40;;
68690;SDS011;55675;49.588;8.640;2022-08-20T16:57:08;2.28;;;2.03;;
68690;SDS011;55675;49.588;8.640;2022-08-20T16:59:52;1.17;;;1.17;;
68690;SDS011;55675;49.588;8.640;2022-08-20T17:02:19;3.10;;;1.20;;
68690;SDS011;55675;49.588;8.640;2022-08-20T17:04:49;1.45;;;1.35;;
68690;SDS011;55675;49.588;8.640;2022-08-20T17:08:03;1.30;;;1.20;;
68690;SDS011;55675;49.588;8.640;2022-08-20T17:10:24;1.38;;;1.27;;
68690;SDS011;55675;49.588;8.640;2022-08-20T17:12:54;3.03;;;1.25;;
68690;SDS011;55675;49.588;8.640;2022-08-20T17:15:25;1.20;;;1.20;;
68690;SDS011;55675;49.588;8.640;2022-08-20T17:17:53;1.20;;;1.20;;
68690;SDS011;55675;49.588;8.640;2022-08-20T17:20:20;1.90;;;1.30;;
68690;SDS011;55675;49.588;8.640;2022-08-20T17:22:52;1.92;;;1.38;;
68690;SDS011;55675;49.588;8.640;2022-08-20T17:25:31;3.00;;;1.50;;
68690;SDS011;55675;49.588;8.640;2022-08-20T17:28:11;1.70;;;1.58;;
68690;SDS011;55675;49.588;8.640;2022-08-20T17:30:41;1.92;;;1.50;;
68690;SDS011;55675;49.588;8.640;2022-08-20T17:33:17;1.40;;;1.30;;
68690;SDS011;55675;49.588;8.640;2022-08-20T17:35:47;1.40;;;1.30;;
68690;SDS011;55675;49.588;8.640;2022-08-20T17:41:06;1.10;;;1.10;;
68690;SDS011;55675;49.588;8.640;2022-08-20T17:43:36;3.00;;;1.15;;
68690;SDS011;55675;49.588;8.640;2022-08-20T17:46:02;1.60;;;1.30;;
68690;SDS011;55675;49.588;8.640;2022-08-20T17:48:37;1.67;;;1.17;;
68690;SDS011;55675;49.588;8.640;2022-08-20T17:51:15;4.63;;;1.23;;
68690;SDS011;55675;49.588;8.640;2022-08-20T17:53:42;1.47;;;1.37;;
68690;SDS011;55675;49.588;8.640;2022-08-20T17:56:21;1.60;;;1.50;;
68690;SDS011;55675;49.588;8.640;2022-08-20T18:01:28;1.17;;;1.03;;
68690;SDS011;55675;49.588;8.640;2022-08-20T18:03:53;1.40;;;1.30;;
68690;SDS011;55675;49.588;8.640;2022-08-20T18:06:33;3.00;;;1.50;;
68690;SDS011;55675;49.588;8.640;2022-08-20T18:15:09;3.00;;;1.47;;
68690;SDS011;55675;49.588;8.640;2022-08-20T18:20:41;1.60;;;1.50;;
68690;SDS011;55675;49.588;8.640;2022-08-20T18:23:27;1.70;;;1.60;;
68690;SDS011;55675;49.588;8.640;2022-08-20T18:26:00;2.00;;;1.80;;
68690;SDS011;55675;49.588;8.640;2022-08-20T18:28:34;2.50;;;2.00;;
68690;SDS011;55675;49.588;8.640;2022-08-20T18:31:03;2.13;;;1.53;;
68690;SDS011;55675;49.588;8.640;2022-08-20T18:33:38;1.80;;;1.70;;
68690;SDS011;55675;49.588;8.640;2022-08-20T18:38:55;1.97;;;1.87;;
68690;SDS011;55675;49.588;8.640;2022-08-20T18:41:27;2.87;;;2.00;;
68690;SDS011;55675;49.588;8.640;2022-08-20T18:44:12;1.90;;;1.80;;
68690;SDS011;55675;49.588;8.640;2022-08-20T18:46:54;4.47;;;1.80;;
68690;SDS011;55675;49.588;8.640;2022-08-20T18:49:28;2.57;;;1.73;;
68690;SDS011;55675;49.588;8.640;2022-08-20T18:51:54;1.80;;;1.70;;
68690;SDS011;55675;49.588;8.640;2022-08-20T18:54:22;1.90;;;1.80;;
68690;SDS011;55675;49.588;8.640;2022-08-20T18:57:06;2.03;;;1.87;;
68690;SDS011;55675;49.588;8.640;2022-08-20T18:59:41;2.70;;;1.77;;
68690;SDS011;55675;49.588;8.640;2022-08-20T19:02:12;3.73;;;2.10;;
68690;SDS011;55675;49.588;8.640;2022-08-20T19:04:54;3.67;;;1.80;;
68690;SDS011;55675;49.588;8.640;2022-08-20T19:07:22;2.00;;;1.80;;
68690;SDS011;55675;49.588;8.640;2022-08-20T19:09:54;1.97;;;1.87;;
68690;SDS011;55675;49.588;8.640;2022-08-20T19:13:02;1.83;;;1.70;;
68690;SDS011;55675;49.588;8.640;2022-08-20T19:15:37;1.90;;;1.60;;
68690;SDS011;55675;49.588;8.640;2022-08-20T19:18:10;1.97;;;1.60;;
68690;SDS011;55675;49.588;8.640;2022-08-20T19:20:51;2.47;;;2.10;;
68690;SDS011;55675;49.588;8.640;2022-08-20T19:23:22;2.20;;;2.00;;
68690;SDS011;55675;49.588;8.640;2022-08-20T19:25:54;2.13;;;1.90;;
68690;SDS011;55675;49.588;8.640;2022-08-20T19:31:20;2.27;;;2.10;;
68690;SDS011;55675;49.588;8.640;2022-08-20T19:33:48;2.10;;;1.90;;
68690;SDS011;55675;49.588;8.640;2022-08-20T19:36:25;3.33;;;2.10;;
68690;SDS011;55675;49.588;8.640;2022-08-20T19:38:55;3.20;;;2.37;;
68690;SDS011;55675;49.588;8.640;2022-08-20T19:43:48;2.87;;;2.13;;
68690;SDS011;55675;49.588;8.640;2022-08-20T19:46:15;3.17;;;2.43;;
68690;SDS011;55675;49.588;8.640;2022-08-20T19:54:07;2.70;;;1.80;;
68690;SDS011;55675;49.588;8.640;2022-08-20T19:56:43;2.77;;;2.13;;
68690;SDS011;55675;49.588;8.640;2022-08-20T19:59:09;2.50;;;2.07;;
68690;SDS011;55675;49.588;8.640;2022-08-20T20:01:50;4.80;;;1.90;;
68690;SDS011;55675;49.588;8.640;2022-08-20T20:04:24;2.13;;;1.97;;
68690;SDS011;55675;49.588;8.640;2022-08-20T20:06:51;2.87;;;2.20;;
68690;SDS011;55675;49.588;8.640;2022-08-20T20:09:24;2.83;;;1.90;;
68690;SDS011;55675;49.588;8.640;2022-08-20T20:11:52;2.97;;;2.07;;
68690;SDS011;55675;49.588;8.640;2022-08-20T20:14:20;2.37;;;1.90;;
68690;SDS011;55675;49.588;8.640;2022-08-20T20:16:52;3.17;;;2.20;;
68690;SDS011;55675;49.588;8.640;2022-08-20T20:19:19;2.40;;;2.00;;
68690;SDS011;55675;49.588;8.640;2022-08-20T20:21:46;2.37;;;2.17;;
68690;SDS011;55675;49.588;8.640;2022-08-20T20:24:23;2.27;;;2.07;;
68690;SDS011;55675;49.588;8.640;2022-08-20T20:26:50;2.23;;;2.00;;
68690;SDS011;55675;49.588;8.640;2022-08-20T20:31:52;3.57;;;2.00;;
68690;SDS011;55675;49.588;8.640;2022-08-20T20:34:24;2.77;;;2.23;;
68690;SDS011;55675;49.588;8.640;2022-08-20T20:37:06;2.50;;;2.30;;
68690;SDS011;55675;49.588;8.640;2022-08-20T20:39:35;3.27;;;2.27;;
68690;SDS011;55675;49.588;8.640;2022-08-20T20:42:10;2.60;;;2.10;;
68690;SDS011;55675;49.588;8.640;2022-08-20T20:44:48;2.80;;;2.00;;
68690;SDS011;55675;49.588;8.640;2022-08-20T20:47:19;2.97;;;2.20;;
68690;SDS011;55675;49.588;8.640;2022-08-20T20:49:48;2.47;;;2.27;;
68690;SDS011;55675;49.588;8.640;2022-08-20T20:52:26;3.27;;;2.23;;